Indianapolis, IN

11:20 AM EDT die 23o August, anno 2014 (GMT -0400)
Indianapolis Terry | Change Station
CLOSE
Current Station
Airport
Location: Indianapolis,
Elevation: 922 ft
Nearby Weather Stations

Elev 922 ft 40.03 °N, 86.25 °W | Updated 5 minutes ago

Scattered Clouds
Nubes Dispersae
82 °F
Feels Like 86 °F
N
5
Ventus Variabilis Ventus from Inter Austrum et Eurum

Hodie
High -- | Low -- °F
--% Chance of Precip.
Yesterday
High -- | Low -- °F
Precip. -- in
7:04 AM 8:29 PM
Waning Crescent, 3% visible
Pressio 30.03 in
Visibilitas 10.0 milia passuum
Clouds Nubes Dispersae 2400 ft
Index Caloris 86 °F
Frigus in quo Ros apparet 70 °F
Umor 68%
Rainfall 0.00 in
Snow Depth Not available.
UV 5 out of 12
Pollen 10.10 out of 12
Ozone Good
PM2.5 Good
Flu Activity Not available.
METAR KTYQ 231515Z AUTO 14004KT 10SM SCT024 28/21 A3003 RMK AO2 T02770214

More Conditions Fewer Conditions

Pressio 30.03 in
Visibilitas 10.0 milia passuum
Clouds Nubes Dispersae 2400 ft
Index Caloris 86 °F
Frigus in quo Ros apparet 70 °F
Umor 68%
Rainfall 0.00 in
Snow Depth Not available.
UV 5 out of 12
Pollen 10.10 out of 12
Ozone Good
PM2.5 Good
Flu Activity Not available.
METAR KTYQ 231515Z AUTO 14004KT 10SM SCT024 28/21 A3003 RMK AO2 T02770214

More Conditions Fewer Conditions

10-Day Weather Forecast

Almanac

Astronomy

Aug. 23, 2014 Rise Set
Actual Time 7:04 AM EDT 8:29 PM EDT
Civil Twilight 6:35 AM EDT 8:57 PM EDT
Nautical Twilight 6:01 AM EDT 9:31 PM EDT
Astronomical Twilight 5:25 AM EDT 10:07 PM EDT
Moon 5:19 AM EDT 7:13 PM EDT
Length Of Visible Light 14h 21m
Length of Day
13h 25m
Tomorrow will be 2m 25s shorter.
Waning Crescent, 3% of the Moon is Illuminated
Hodie
Waning Crescent
Aug 25
New
Sep 2
First Quarter
Sep 8
Full
Sep 15
Last Quarter

Today's Extremes

State Highs State Lows

Community

WunderPhotos

Upload Photos

1,746,495 photos uploaded!

WunderBlogs® & News

By Dr. Jeff Masters
Director of Meteorology, Weather Underground
By Kari Strenfel
Meteorologist, Weather Underground
By Christopher C. Burt
Weather Historian, Weather Underground
August 23, 2014
August 23, 2014
August 23, 2014

Nearby

Air Quality

  Air Quality AQ Index Pollutant
Yesterday Good
OZONE
Yesterday Good
PM10
Current Good
PM2.5
Current Good
OZONE
Die Saturni Moderate
PM2.5
Die Saturni Good
OZONE
Die Solis Moderate
PM2.5
Die Solis Good
OZONE
Die Lunae Moderate
PM2.5
Die Lunae Moderate
OZONE

Snow Depth

Station Depth Elevation
No new snow has been reported.

Earthquake Activity

City Distance Mag. Time & Date
No recent earthquake activity has been reported nearby.
Minimum magnitude displayed is 2.5.

Coastal Water Temperatures

Locus Calor
No Stations Reporting

Nearby Weather Stations